createdAt,value
2022-08-19T00:00:08.549Z,6.00
2022-08-19T00:02:36.708Z,8.50
2022-08-19T00:05:05.197Z,5.50
2022-08-19T00:07:33.530Z,5.50
2022-08-19T00:10:02.862Z,6.20
2022-08-19T00:12:30.721Z,6.23
2022-08-19T00:14:58.858Z,5.90
2022-08-19T00:17:28.031Z,6.03
2022-08-19T00:19:56.573Z,5.67
2022-08-19T00:22:25.304Z,7.77
2022-08-19T00:24:53.656Z,6.23
2022-08-19T00:27:26.996Z,5.40
2022-08-19T00:29:55.461Z,5.27
2022-08-19T00:32:23.936Z,5.80
2022-08-19T00:34:52.844Z,5.20
2022-08-19T00:37:20.608Z,6.00
2022-08-19T00:39:49.400Z,5.97
2022-08-19T00:42:17.937Z,6.73
2022-08-19T00:44:48.477Z,6.10
2022-08-19T00:47:16.545Z,5.77
2022-08-19T00:49:51.705Z,6.27
2022-08-19T00:52:22.942Z,6.07
2022-08-19T00:54:52.746Z,6.87
2022-08-19T00:57:22.462Z,6.40
2022-08-19T01:00:01.837Z,6.53
2022-08-19T01:02:31.819Z,5.80
2022-08-19T01:05:01.679Z,6.13
2022-08-19T01:07:34.106Z,6.20
2022-08-19T01:10:07.601Z,6.60
2022-08-19T01:12:36.461Z,8.30
2022-08-19T01:15:06.772Z,7.53
2022-08-19T01:17:35.462Z,6.37
2022-08-19T01:20:03.373Z,6.10
2022-08-19T01:22:40.357Z,6.83
2022-08-19T01:25:14.907Z,6.03
2022-08-19T01:28:07.953Z,6.67
2022-08-19T01:30:39.763Z,6.33
2022-08-19T01:33:15.289Z,8.53
2022-08-19T01:35:43.459Z,8.23
2022-08-19T01:38:21.772Z,8.47
2022-08-19T01:40:49.511Z,7.97
2022-08-19T01:43:17.406Z,7.27
2022-08-19T01:45:45.297Z,8.10
2022-08-19T01:48:13.076Z,8.70
2022-08-19T01:50:41.159Z,7.23
2022-08-19T01:53:10.439Z,7.67
2022-08-19T01:55:41.672Z,6.63
2022-08-19T01:58:14.482Z,7.33
2022-08-19T02:00:42.537Z,7.33
2022-08-19T02:03:12.425Z,6.47
2022-08-19T02:05:41.190Z,7.97
2022-08-19T02:08:09.836Z,7.20
2022-08-19T02:10:42.004Z,6.70
2022-08-19T02:13:10.168Z,12.60
2022-08-19T02:15:38.823Z,7.00
2022-08-19T02:18:07.523Z,7.90
2022-08-19T02:20:35.799Z,6.97
2022-08-19T02:23:03.573Z,7.20
2022-08-19T02:25:31.594Z,7.33
2022-08-19T02:28:01.968Z,7.23
2022-08-19T02:30:30.029Z,7.30
2022-08-19T02:32:58.035Z,9.10
2022-08-19T02:35:26.640Z,7.80
2022-08-19T02:38:11.897Z,9.97
2022-08-19T02:40:40.366Z,7.73
2022-08-19T02:43:10.697Z,7.83
2022-08-19T02:45:40.603Z,6.87
2022-08-19T02:48:14.919Z,8.40
2022-08-19T02:50:53.944Z,7.50
2022-08-19T02:53:23.332Z,7.93
2022-08-19T02:55:51.841Z,7.47
2022-08-19T02:58:22.357Z,9.80
2022-08-19T03:00:51.320Z,8.43
2022-08-19T03:03:19.913Z,9.43
2022-08-19T03:05:56.493Z,9.67
2022-08-19T03:08:26.873Z,8.90
2022-08-19T03:10:55.162Z,9.07
2022-08-19T03:13:25.428Z,7.43
2022-08-19T03:15:53.595Z,7.47
2022-08-19T03:18:23.447Z,8.00
2022-08-19T03:20:53.895Z,7.03
2022-08-19T03:23:23.918Z,6.73
2022-08-19T03:26:03.217Z,9.33
2022-08-19T03:28:42.967Z,7.30
2022-08-19T03:31:41.619Z,7.87
2022-08-19T03:34:08.125Z,7.57
2022-08-19T03:36:36.320Z,8.03
2022-08-19T03:39:04.138Z,8.30
2022-08-19T03:41:44.670Z,7.73
2022-08-19T03:44:18.164Z,8.53
2022-08-19T03:46:47.292Z,9.67
2022-08-19T03:49:15.409Z,7.67
2022-08-19T03:51:44.448Z,8.37
2022-08-19T03:54:14.683Z,8.70
2022-08-19T03:56:43.583Z,7.30
2022-08-19T03:59:15.073Z,8.23
2022-08-19T04:01:47.765Z,8.90
2022-08-19T04:04:16.339Z,7.73
2022-08-19T04:06:45.430Z,7.60
2022-08-19T04:09:13.595Z,7.23
2022-08-19T04:11:44.793Z,7.40
2022-08-19T04:14:13.885Z,7.07
2022-08-19T04:16:41.909Z,7.53
2022-08-19T04:19:11.636Z,10.23
2022-08-19T04:21:40.045Z,7.60
2022-08-19T04:24:08.743Z,8.13
2022-08-19T04:26:38.799Z,8.30
2022-08-19T04:29:12.378Z,7.80
2022-08-19T04:31:42.059Z,11.47
2022-08-19T04:34:14.746Z,8.83
2022-08-19T04:36:45.710Z,9.73
2022-08-19T04:39:15.390Z,10.80
2022-08-19T04:42:12.088Z,11.60
2022-08-19T04:44:46.088Z,9.83
2022-08-19T04:47:14.999Z,8.97
2022-08-19T04:49:47.363Z,12.00
2022-08-19T04:52:15.605Z,11.90
2022-08-19T04:54:43.615Z,13.17
2022-08-19T04:57:13.536Z,10.27
2022-08-19T04:59:41.906Z,11.30
2022-08-19T05:02:12.605Z,11.90
2022-08-19T05:04:41.379Z,8.20
2022-08-19T05:07:11.011Z,10.50
2022-08-19T05:09:56.745Z,12.60
2022-08-19T05:12:29.210Z,9.47
2022-08-19T05:14:58.234Z,11.90
2022-08-19T05:17:28.033Z,11.47
2022-08-19T05:20:15.607Z,10.87
2022-08-19T05:22:46.026Z,12.68
2022-08-19T05:25:15.257Z,10.00
2022-08-19T05:27:43.946Z,9.30
2022-08-19T05:30:12.288Z,12.75
2022-08-19T05:32:41.493Z,13.52
2022-08-19T05:35:10.947Z,20.02
2022-08-19T05:37:41.449Z,13.50
2022-08-19T05:40:12.574Z,14.55
2022-08-19T05:42:40.609Z,12.38
2022-08-19T05:45:09.248Z,18.13
2022-08-19T05:47:42.169Z,12.50
2022-08-19T05:50:11.590Z,12.98
2022-08-19T05:52:45.933Z,13.07
2022-08-19T05:55:21.615Z,13.07
2022-08-19T05:57:49.529Z,7.93
2022-08-19T06:00:20.433Z,9.30
2022-08-19T06:02:53.395Z,9.43
2022-08-19T06:05:21.763Z,10.88
2022-08-19T06:07:50.101Z,10.52
2022-08-19T06:10:19.613Z,13.35
2022-08-19T06:12:47.807Z,8.95
2022-08-19T06:15:17.058Z,10.85
2022-08-19T06:17:47.624Z,12.85
2022-08-19T06:20:39.913Z,14.30
2022-08-19T06:23:11.418Z,11.77
2022-08-19T06:25:46.316Z,10.10
2022-08-19T06:28:15.557Z,9.80
2022-08-19T06:30:43.641Z,11.60
2022-08-19T06:33:11.430Z,10.05
2022-08-19T06:35:41.320Z,8.82
2022-08-19T06:38:10.407Z,13.02
2022-08-19T06:40:39.473Z,9.02
2022-08-19T06:43:09.531Z,10.20
2022-08-19T06:45:39.719Z,7.15
2022-08-19T06:48:09.136Z,8.90
2022-08-19T06:50:39.856Z,8.05
2022-08-19T06:53:09.012Z,11.07
2022-08-19T06:55:36.823Z,15.88
2022-08-19T06:58:05.505Z,13.65
2022-08-19T07:00:35.160Z,14.45
2022-08-19T07:03:07.773Z,7.70
2022-08-19T07:05:40.209Z,13.35
2022-08-19T07:08:13.623Z,14.75
2022-08-19T07:10:44.727Z,11.90
2022-08-19T07:13:12.679Z,17.27
2022-08-19T07:15:43.320Z,14.65
2022-08-19T07:18:11.892Z,9.23
2022-08-19T07:20:42.078Z,13.82
2022-08-19T07:23:16.195Z,12.60
2022-08-19T07:25:44.918Z,9.48
2022-08-19T07:28:24.259Z,7.13
2022-08-19T07:30:54.581Z,14.23
2022-08-19T07:33:23.506Z,13.32
2022-08-19T07:35:51.919Z,11.98
2022-08-19T07:38:20.125Z,14.13
2022-08-19T07:40:48.602Z,9.30
2022-08-19T07:43:18.610Z,9.25
2022-08-19T07:45:49.493Z,8.75
2022-08-19T07:48:18.695Z,10.50
2022-08-19T07:50:47.096Z,7.85
2022-08-19T07:53:15.240Z,13.70
2022-08-19T07:55:43.987Z,10.23
2022-08-19T07:58:15.558Z,14.57
2022-08-19T08:00:43.410Z,8.77
2022-08-19T08:03:11.959Z,9.70
2022-08-19T08:05:59.455Z,9.43
2022-08-19T08:08:48.130Z,11.57
2022-08-19T08:11:20.028Z,10.63
2022-08-19T08:14:00.881Z,7.32
2022-08-19T08:16:31.077Z,9.75
2022-08-19T08:18:59.085Z,13.50
2022-08-19T08:21:28.595Z,13.40
2022-08-19T08:23:56.841Z,7.78
2022-08-19T08:26:24.875Z,10.63
2022-08-19T08:28:52.711Z,9.10
2022-08-19T08:31:21.426Z,9.70
2022-08-19T08:33:49.744Z,10.30
2022-08-19T08:36:17.551Z,9.77
2022-08-19T08:38:47.629Z,12.98
2022-08-19T08:41:21.559Z,7.13
2022-08-19T08:43:52.161Z,8.95
2022-08-19T08:46:30.745Z,12.55
2022-08-19T08:49:04.992Z,10.13
2022-08-19T08:51:36.393Z,14.38
2022-08-19T08:54:09.902Z,11.23
2022-08-19T08:56:40.019Z,11.02
2022-08-19T08:59:11.511Z,5.95
2022-08-19T09:01:40.366Z,6.03
2022-08-19T09:04:09.309Z,7.38
2022-08-19T09:06:41.238Z,5.18
2022-08-19T09:09:16.662Z,7.20
2022-08-19T09:11:51.825Z,5.55
2022-08-19T09:14:49.398Z,7.75
2022-08-19T09:17:14.532Z,5.57
2022-08-19T09:19:50.901Z,10.30
2022-08-19T09:22:26.058Z,17.17
2022-08-19T09:24:57.029Z,7.43
2022-08-19T09:27:35.573Z,12.63
2022-08-19T09:30:14.938Z,8.05
2022-08-19T09:32:44.527Z,7.80
2022-08-19T09:35:12.625Z,6.63
2022-08-19T09:37:40.909Z,5.40
2022-08-19T09:40:12.023Z,3.80
2022-08-19T09:42:49.959Z,5.03
2022-08-19T09:45:21.565Z,4.20
2022-08-19T09:47:49.987Z,4.05
2022-08-19T09:50:18.286Z,6.75
2022-08-19T09:52:56.922Z,4.30
2022-08-19T09:55:31.709Z,6.85
2022-08-19T09:58:02.582Z,7.28
2022-08-19T10:00:31.412Z,4.07
2022-08-19T10:02:59.369Z,3.85
2022-08-19T10:05:44.800Z,5.38
2022-08-19T10:08:16.646Z,6.82
2022-08-19T10:10:47.564Z,6.63
2022-08-19T10:13:16.853Z,4.00
2022-08-19T10:15:47.287Z,4.38
2022-08-19T10:18:16.788Z,5.97
2022-08-19T10:20:46.505Z,7.38
2022-08-19T10:23:20.239Z,5.95
2022-08-19T10:25:54.762Z,4.15
2022-08-19T10:28:24.222Z,4.55
2022-08-19T10:30:52.082Z,4.13
2022-08-19T10:33:42.567Z,4.72
2022-08-19T10:36:10.733Z,5.07
2022-08-19T10:38:39.295Z,5.28
2022-08-19T10:41:20.307Z,4.22
2022-08-19T10:43:49.164Z,6.50
2022-08-19T10:46:17.714Z,4.95
2022-08-19T10:48:50.499Z,5.32
2022-08-19T10:51:35.933Z,6.65
2022-08-19T10:54:15.786Z,5.80
2022-08-19T10:56:53.385Z,6.85
2022-08-19T10:59:22.302Z,7.55
2022-08-19T11:01:56.822Z,4.53
2022-08-19T11:04:29.537Z,4.93
2022-08-19T11:06:57.806Z,4.55
2022-08-19T11:09:33.649Z,8.40
2022-08-19T11:12:04.971Z,5.72
2022-08-19T11:14:34.263Z,5.00
2022-08-19T11:17:02.772Z,4.78
2022-08-19T11:19:30.949Z,5.47
2022-08-19T11:22:00.194Z,5.05
2022-08-19T11:24:29.087Z,6.72
2022-08-19T11:27:03.825Z,4.72
2022-08-19T11:29:35.470Z,4.55
2022-08-19T11:32:06.060Z,5.32
2022-08-19T11:34:33.960Z,6.40
2022-08-19T11:37:01.911Z,5.70
2022-08-19T11:39:31.359Z,5.43
2022-08-19T11:42:00.262Z,5.93
2022-08-19T11:44:31.428Z,4.93
2022-08-19T11:47:08.833Z,4.88
2022-08-19T11:49:37.659Z,5.05
2022-08-19T11:52:05.748Z,7.18
2022-08-19T11:54:33.993Z,5.45
2022-08-19T11:57:02.400Z,5.63
2022-08-19T11:59:31.846Z,6.35
2022-08-19T12:02:01.538Z,5.15
2022-08-19T12:04:29.356Z,6.82
2022-08-19T12:06:57.161Z,5.60
2022-08-19T12:09:25.057Z,5.65
2022-08-19T12:11:53.489Z,6.28
2022-08-19T12:14:21.310Z,7.22
2022-08-19T12:16:51.411Z,7.57
2022-08-19T12:19:22.621Z,5.63
2022-08-19T12:21:51.820Z,5.25
2022-08-19T12:24:24.338Z,6.93
2022-08-19T12:26:53.127Z,5.88
2022-08-19T12:29:23.982Z,5.72
2022-08-19T12:31:52.239Z,6.07
2022-08-19T12:34:21.996Z,5.47
2022-08-19T12:36:50.808Z,6.88
2022-08-19T12:39:18.732Z,8.43
2022-08-19T12:41:51.572Z,7.28
2022-08-19T12:44:29.385Z,5.38
2022-08-19T12:47:00.806Z,6.18
2022-08-19T12:49:54.234Z,6.70
2022-08-19T12:52:23.544Z,6.63
2022-08-19T12:54:53.923Z,5.63
2022-08-19T12:57:23.208Z,6.07
2022-08-19T12:59:55.778Z,6.25
2022-08-19T13:02:23.834Z,7.18
2022-08-19T13:04:54.227Z,5.22
2022-08-19T13:07:22.729Z,8.25
2022-08-19T13:09:53.401Z,5.78
2022-08-19T13:12:24.937Z,7.63
2022-08-19T13:14:53.175Z,5.53
2022-08-19T13:17:22.739Z,6.32
2022-08-19T13:19:51.288Z,7.03
2022-08-19T13:22:20.574Z,5.72
2022-08-19T13:24:49.425Z,6.03
2022-08-19T13:27:17.222Z,6.40
2022-08-19T13:30:02.824Z,8.38
2022-08-19T13:32:49.616Z,7.75
2022-08-19T13:35:19.587Z,6.10
2022-08-19T13:37:49.092Z,6.72
2022-08-19T13:40:19.587Z,5.80
2022-08-19T13:42:48.702Z,6.50
2022-08-19T13:45:17.571Z,6.00
2022-08-19T13:47:47.928Z,8.20
2022-08-19T13:50:16.862Z,6.35
2022-08-19T13:52:46.037Z,5.50
2022-08-19T13:55:16.747Z,6.80
2022-08-19T13:57:54.127Z,6.25
2022-08-19T14:00:23.075Z,5.78
2022-08-19T14:02:52.761Z,7.20
2022-08-19T14:05:21.172Z,6.50
2022-08-19T14:07:49.590Z,5.47
2022-08-19T14:10:19.933Z,6.55
2022-08-19T14:12:48.726Z,5.28
2022-08-19T14:15:17.337Z,6.43
2022-08-19T14:17:47.581Z,5.47
2022-08-19T14:20:17.760Z,6.95
2022-08-19T14:22:47.921Z,8.70
2022-08-19T14:25:17.449Z,5.88
2022-08-19T14:27:46.924Z,5.45
2022-08-19T14:30:17.597Z,5.90
2022-08-19T14:32:45.941Z,6.10
2022-08-19T14:35:15.307Z,6.82
2022-08-19T14:37:45.297Z,5.68
2022-08-19T14:40:14.440Z,5.03
2022-08-19T14:42:43.079Z,6.53
2022-08-19T14:45:13.166Z,8.82
2022-08-19T14:47:41.580Z,8.02
2022-08-19T14:50:18.306Z,6.10
2022-08-19T14:52:47.214Z,6.57
2022-08-19T14:55:15.432Z,5.60
2022-08-19T14:57:43.142Z,6.10
2022-08-19T15:00:14.504Z,6.78
2022-08-19T15:02:42.387Z,5.50
2022-08-19T15:05:11.282Z,6.43
2022-08-19T15:07:39.663Z,6.07
2022-08-19T15:10:08.937Z,6.32
2022-08-19T15:12:36.881Z,5.97
2022-08-19T15:15:05.665Z,6.75
2022-08-19T15:17:43.353Z,5.63
2022-08-19T15:20:15.445Z,7.38
2022-08-19T15:22:43.418Z,6.18
2022-08-19T15:25:12.507Z,7.35
2022-08-19T15:27:42.503Z,5.50
2022-08-19T15:30:11.038Z,5.25
2022-08-19T15:32:41.111Z,5.07
2022-08-19T15:35:09.531Z,6.38
2022-08-19T15:37:37.899Z,5.90
2022-08-19T15:40:06.766Z,6.80
2022-08-19T15:42:34.727Z,7.30
2022-08-19T15:45:03.263Z,5.55
2022-08-19T15:47:34.557Z,6.25
2022-08-19T15:50:10.846Z,5.93
2022-08-19T15:52:45.025Z,5.25
2022-08-19T15:55:19.278Z,5.13
2022-08-19T15:58:20.553Z,5.85
2022-08-19T16:01:13.719Z,5.63
2022-08-19T16:04:00.053Z,7.53
2022-08-19T16:06:29.866Z,8.13
2022-08-19T16:08:58.983Z,4.97
2022-08-19T16:11:29.627Z,5.57
2022-08-19T16:13:59.106Z,6.13
2022-08-19T16:16:31.011Z,4.82
2022-08-19T16:19:02.838Z,6.53
2022-08-19T16:21:33.658Z,4.90
2022-08-19T16:24:02.531Z,5.00
2022-08-19T16:26:31.601Z,5.40
2022-08-19T16:29:01.088Z,5.72
2022-08-19T16:31:29.490Z,6.65
2022-08-19T16:33:57.757Z,5.75
2022-08-19T16:36:25.613Z,6.22
2022-08-19T16:38:56.156Z,8.20
2022-08-19T16:41:24.696Z,6.20
2022-08-19T16:43:54.498Z,7.72
2022-08-19T16:46:23.457Z,7.45
2022-08-19T16:48:55.203Z,6.80
2022-08-19T16:51:24.092Z,5.15
2022-08-19T16:53:53.651Z,10.13
2022-08-19T16:56:25.714Z,5.32
2022-08-19T16:58:54.012Z,8.38
2022-08-19T17:01:24.100Z,5.72
2022-08-19T17:03:53.086Z,6.95
2022-08-19T17:06:22.292Z,5.15
2022-08-19T17:08:51.254Z,5.60
2022-08-19T17:11:19.936Z,7.20
2022-08-19T17:13:50.960Z,11.70
2022-08-19T17:16:19.941Z,6.65
2022-08-19T17:18:53.872Z,5.97
2022-08-19T17:21:22.949Z,5.88
2022-08-19T17:23:50.958Z,10.10
2022-08-19T17:26:19.942Z,7.43
2022-08-19T17:28:50.280Z,8.82
2022-08-19T17:31:23.220Z,7.75
2022-08-19T17:33:51.084Z,8.63
2022-08-19T17:36:23.525Z,7.72
2022-08-19T17:38:51.554Z,9.80
2022-08-19T17:41:19.899Z,10.40
2022-08-19T17:43:49.509Z,9.02
2022-08-19T17:46:19.409Z,7.90
2022-08-19T17:48:52.062Z,7.95
2022-08-19T17:51:23.155Z,8.20
2022-08-19T17:53:52.327Z,7.18
2022-08-19T17:56:20.454Z,6.53
2022-08-19T17:58:59.598Z,8.45
2022-08-19T18:01:32.013Z,6.93
2022-08-19T18:04:16.347Z,12.50
2022-08-19T18:06:53.119Z,9.57
2022-08-19T18:09:23.833Z,8.32
2022-08-19T18:11:53.387Z,9.10
2022-08-19T18:14:32.203Z,10.90
2022-08-19T18:17:02.092Z,11.45
2022-08-19T18:19:41.283Z,10.55
2022-08-19T18:22:10.579Z,10.60
2022-08-19T18:24:39.259Z,8.02
2022-08-19T18:27:07.345Z,7.93
2022-08-19T18:29:38.512Z,7.40
2022-08-19T18:32:12.362Z,12.75
2022-08-19T18:34:41.333Z,8.52
2022-08-19T18:37:09.399Z,9.73
2022-08-19T18:39:54.648Z,7.80
2022-08-19T18:42:40.481Z,7.50
2022-08-19T18:45:28.388Z,7.18
2022-08-19T18:48:27.464Z,6.72
2022-08-19T18:50:58.539Z,9.70
2022-08-19T18:53:26.683Z,7.88
2022-08-19T18:55:55.487Z,7.60
2022-08-19T18:58:26.415Z,6.93
2022-08-19T19:00:57.614Z,7.38
2022-08-19T19:03:26.860Z,6.80
2022-08-19T19:05:55.279Z,10.00
2022-08-19T19:08:26.760Z,7.60
2022-08-19T19:10:55.686Z,8.60
2022-08-19T19:13:23.732Z,10.95
2022-08-19T19:15:52.056Z,7.07
2022-08-19T19:18:27.751Z,8.68
2022-08-19T19:20:57.290Z,8.00
2022-08-19T19:23:26.313Z,8.32
2022-08-19T19:25:55.747Z,6.13
2022-08-19T19:28:29.843Z,9.50
2022-08-19T19:30:59.195Z,7.32
2022-08-19T19:33:29.363Z,6.82
2022-08-19T19:35:57.086Z,7.47
2022-08-19T19:38:26.365Z,8.68
2022-08-19T19:40:54.568Z,6.72
2022-08-19T19:43:22.571Z,6.80
2022-08-19T19:45:50.498Z,7.03
2022-08-19T19:48:18.561Z,7.60
2022-08-19T19:50:54.159Z,8.00
2022-08-19T19:53:27.637Z,6.80
2022-08-19T19:55:58.866Z,7.22
2022-08-19T19:58:28.752Z,7.40
2022-08-19T20:00:58.098Z,5.90
2022-08-19T20:03:26.092Z,8.57
2022-08-19T20:05:55.418Z,7.28
2022-08-19T20:08:40.558Z,7.95
2022-08-19T20:11:08.684Z,7.05
2022-08-19T20:13:40.734Z,7.07
2022-08-19T20:16:09.445Z,6.97
2022-08-19T20:18:38.906Z,8.70
2022-08-19T20:21:08.530Z,8.15
2022-08-19T20:23:36.772Z,6.97
2022-08-19T20:26:06.622Z,8.10
2022-08-19T20:29:32.746Z,6.28
2022-08-19T20:31:59.376Z,8.02
2022-08-19T20:34:27.941Z,6.93
2022-08-19T20:36:57.173Z,7.03
2022-08-19T20:39:26.444Z,7.32
2022-08-19T20:41:56.577Z,6.47
2022-08-19T20:44:24.992Z,6.78
2022-08-19T20:46:54.242Z,6.15
2022-08-19T20:49:27.102Z,6.35
2022-08-19T20:51:55.697Z,6.25
2022-08-19T20:54:25.195Z,6.13
2022-08-19T20:56:53.648Z,6.55
2022-08-19T20:59:23.350Z,5.95
2022-08-19T21:01:52.588Z,8.32
2022-08-19T21:04:22.358Z,8.65
2022-08-19T21:06:50.531Z,6.72
2022-08-19T21:09:18.806Z,6.90
2022-08-19T21:11:49.325Z,7.28
2022-08-19T21:17:14.743Z,10.40
2022-08-19T21:19:42.508Z,6.97
2022-08-19T21:22:10.781Z,7.95
2022-08-19T21:24:38.968Z,7.97
2022-08-19T21:27:08.363Z,9.90
2022-08-19T21:29:40.208Z,8.30
2022-08-19T21:32:08.212Z,10.93
2022-08-19T21:34:37.485Z,7.85
2022-08-19T21:37:05.716Z,11.52
2022-08-19T21:39:39.927Z,7.80
2022-08-19T21:42:09.579Z,12.93
2022-08-19T21:44:37.628Z,10.45
2022-08-19T21:47:05.934Z,6.72
2022-08-19T21:49:37.146Z,7.80
2022-08-19T21:52:05.751Z,7.38
2022-08-19T21:54:38.238Z,10.13
2022-08-19T21:57:10.094Z,8.77
2022-08-19T21:59:43.840Z,6.65
2022-08-19T22:02:20.407Z,10.10
2022-08-19T22:04:49.646Z,9.43
2022-08-19T22:07:17.887Z,7.32
2022-08-19T22:09:46.583Z,8.63
2022-08-19T22:12:23.536Z,6.97
2022-08-19T22:14:53.218Z,7.43
2022-08-19T22:17:22.499Z,8.07
2022-08-19T22:19:57.876Z,6.97
2022-08-19T22:22:26.704Z,12.25
2022-08-19T22:24:55.711Z,6.30
2022-08-19T22:27:23.694Z,7.32
2022-08-19T22:29:53.569Z,9.82
2022-08-19T22:32:28.129Z,7.18
2022-08-19T22:37:54.141Z,7.75
2022-08-19T22:40:23.508Z,7.40
2022-08-19T22:43:00.532Z,7.32
2022-08-19T22:45:29.975Z,6.95
2022-08-19T22:47:58.257Z,6.95
2022-08-19T22:50:26.352Z,6.85
2022-08-19T22:52:55.564Z,7.68
2022-08-19T22:55:23.671Z,9.80
2022-08-19T22:57:51.928Z,7.88
2022-08-19T23:00:19.915Z,11.00
2022-08-19T23:02:52.337Z,10.07
2022-08-19T23:05:22.351Z,10.23
2022-08-19T23:07:52.263Z,8.18
2022-08-19T23:10:26.632Z,8.18
2022-08-19T23:13:02.945Z,6.75
2022-08-19T23:15:31.909Z,7.05
2022-08-19T23:18:02.648Z,9.48
2022-08-19T23:20:34.045Z,7.88
2022-08-19T23:23:03.137Z,8.82
2022-08-19T23:25:32.230Z,7.57
2022-08-19T23:28:18.265Z,7.47
2022-08-19T23:30:47.693Z,7.97
2022-08-19T23:33:21.854Z,7.40
2022-08-19T23:35:51.019Z,6.78
2022-08-19T23:38:22.847Z,8.60
2022-08-19T23:40:51.511Z,9.73
2022-08-19T23:43:24.478Z,6.90
2022-08-19T23:45:53.898Z,6.93
2022-08-19T23:48:28.822Z,7.65
2022-08-19T23:50:57.570Z,8.55
2022-08-19T23:53:26.492Z,8.07
2022-08-19T23:55:54.767Z,6.97
2022-08-19T23:58:24.107Z,7.53
